Time;durP1;ratioP1;P1;durP2;ratioP2;P2;SDS_P1;SDS_P2;PMS_P1;PMS_P2;Temp;Humidity;BMP_temperature;BMP_pressure;BME280_temperature;BME280_humidity;BME280_pressure;Samples;Min_cycle;Max_cycle;Signal;HPM_P1;HPM_P2
2023/05/15 00:00:09;;;;;;;85.40;45.83;;;11.70;99.90;;;;;;4962761;28;20181;-70
2023/05/15 00:02:36;;;;;;;87.07;45.38;;;11.70;99.90;;;;;;4948156;28;20100;-70
2023/05/15 00:05:03;;;;;;;78.67;42.73;;;11.60;99.90;;;;;;4976927;28;20094;-70
2023/05/15 00:07:30;;;;;;;90.63;45.00;;;11.60;99.90;;;;;;4963422;28;20065;-70
2023/05/15 00:09:55;;;;;;;85.13;44.50;;;11.60;99.90;;;;;;4978600;28;20220;-70
2023/05/15 00:12:21;;;;;;;91.60;45.38;;;11.60;99.90;;;;;;4945834;28;20446;-69
2023/05/15 00:14:47;;;;;;;87.23;44.03;;;11.50;99.90;;;;;;4979761;28;20046;-70
2023/05/15 00:17:12;;;;;;;88.03;44.37;;;11.40;99.90;;;;;;4940675;28;20038;-70
2023/05/15 00:19:38;;;;;;;112.53;47.77;;;11.40;99.90;;;;;;4979963;28;20038;-70
2023/05/15 00:22:04;;;;;;;83.67;44.80;;;11.30;99.90;;;;;;4962975;28;20053;-70
2023/05/15 00:24:30;;;;;;;153.03;53.70;;;11.30;99.90;;;;;;4947276;28;20070;-70
2023/05/15 00:26:56;;;;;;;195.90;55.60;;;11.30;99.90;;;;;;4978881;28;20050;-70
2023/05/15 00:29:22;;;;;;;112.07;47.83;;;11.20;99.90;;;;;;4981490;28;21423;-70
2023/05/15 00:31:48;;;;;;;96.50;46.30;;;11.20;99.90;;;;;;4989630;28;20050;-69
2023/05/15 00:34:13;;;;;;;82.80;43.63;;;11.20;99.90;;;;;;4976979;28;20042;-70
2023/05/15 00:36:39;;;;;;;112.90;46.53;;;11.20;99.90;;;;;;4946691;28;20056;-70
2023/05/15 00:39:05;;;;;;;177.43;54.13;;;11.20;99.90;;;;;;4962436;28;20050;-70
2023/05/15 00:41:32;;;;;;;111.90;49.93;;;11.20;99.90;;;;;;4976284;28;20046;-70
2023/05/15 00:43:59;;;;;;;114.47;48.37;;;11.20;99.90;;;;;;4978157;28;20512;-70
2023/05/15 00:46:27;;;;;;;105.10;48.80;;;11.10;99.90;;;;;;4975492;28;20494;-70
2023/05/15 00:48:54;;;;;;;97.80;44.73;;;11.10;99.90;;;;;;4978679;28;20556;-70
2023/05/15 00:51:20;;;;;;;113.80;50.43;;;11.10;99.90;;;;;;4977695;28;20113;-70
2023/05/15 00:53:46;;;;;;;95.00;48.17;;;11.10;99.90;;;;;;4962588;28;20077;-70
2023/05/15 00:56:12;;;;;;;103.73;49.23;;;11.10;99.90;;;;;;4976881;28;20073;-70
2023/05/15 00:58:39;;;;;;;81.27;45.57;;;11.10;99.90;;;;;;4964234;28;20042;-70
2023/05/15 01:01:05;;;;;;;106.07;49.43;;;11.10;99.90;;;;;;4956077;28;20122;-70
2023/05/15 01:03:31;;;;;;;106.33;49.27;;;11.20;99.90;;;;;;4977236;28;20042;-70
2023/05/15 01:05:57;;;;;;;96.17;48.80;;;11.20;99.90;;;;;;4962523;28;20591;-70
2023/05/15 01:08:26;;;;;;;109.13;51.13;;;11.20;99.90;;;;;;4977434;28;20042;-70
2023/05/15 01:10:53;;;;;;;94.50;48.83;;;11.20;99.90;;;;;;4962313;28;20282;-70
2023/05/15 01:13:22;;;;;;;102.83;51.33;;;11.20;99.90;;;;;;4976183;28;20597;-70
2023/05/15 01:15:49;;;;;;;79.30;43.87;;;11.20;99.90;;;;;;4944576;28;20038;-70
2023/05/15 01:18:15;;;;;;;110.50;48.90;;;11.20;99.90;;;;;;4977408;28;20064;-70
2023/05/15 01:20:52;;;;;;;98.07;48.17;;;11.20;99.90;;;;;;4962075;28;20050;-70
2023/05/15 01:23:44;;;;;;;97.63;46.33;;;11.20;99.90;;;;;;4975745;28;20046;-70
2023/05/15 01:26:35;;;;;;;96.33;45.90;;;11.20;99.90;;;;;;4961245;28;20129;-70
2023/05/15 01:29:14;;;;;;;89.40;45.77;;;11.10;99.90;;;;;;4976095;28;20061;-69
2023/05/15 01:31:42;;;;;;;99.33;46.97;;;11.00;99.90;;;;;;4977377;28;20549;-70
2023/05/15 01:34:09;;;;;;;100.67;46.63;;;10.90;99.90;;;;;;4977314;28;20049;-70
2023/05/15 01:36:42;;;;;;;93.00;46.63;;;10.90;99.90;;;;;;4978039;28;20046;-70
2023/05/15 01:39:10;;;;;;;124.60;50.80;;;11.00;99.90;;;;;;4979880;28;20042;-70
2023/05/15 01:42:08;;;;;;;110.83;48.87;;;10.90;99.90;;;;;;4961322;28;20058;-71
2023/05/15 01:44:37;;;;;;;107.87;48.60;;;10.80;99.90;;;;;;4977254;28;20116;-70
2023/05/15 01:47:07;;;;;;;114.73;49.87;;;10.70;99.90;;;;;;4977231;28;20058;-70
2023/05/15 01:49:35;;;;;;;100.50;48.87;;;10.70;99.90;;;;;;4975803;28;20053;-70
2023/05/15 01:52:08;;;;;;;91.63;46.10;;;10.80;99.90;;;;;;4976993;28;20465;-70
2023/05/15 01:54:35;;;;;;;117.03;51.73;;;10.70;99.90;;;;;;5000625;28;20042;-70
2023/05/15 01:57:04;;;;;;;118.87;51.30;;;10.70;99.90;;;;;;4944842;28;20054;-70
2023/05/15 01:59:31;;;;;;;118.40;52.17;;;10.60;99.90;;;;;;4962588;28;20526;-69
2023/05/15 02:01:58;;;;;;;145.47;55.77;;;10.60;99.90;;;;;;4973658;28;20054;-70
2023/05/15 02:04:25;;;;;;;112.30;49.83;;;10.60;99.90;;;;;;4960715;28;20065;-70
2023/05/15 02:06:52;;;;;;;135.67;54.53;;;10.50;99.90;;;;;;4975277;28;20065;-70
2023/05/15 02:09:19;;;;;;;131.17;55.87;;;10.60;99.90;;;;;;4959776;28;20221;-70
2023/05/15 02:11:46;;;;;;;121.43;53.47;;;10.60;99.90;;;;;;4960892;28;20053;-70
2023/05/15 02:14:13;;;;;;;116.47;51.97;;;10.60;99.90;;;;;;4976746;28;20049;-70
2023/05/15 02:16:39;;;;;;;122.33;52.87;;;10.50;99.90;;;;;;4960756;28;20050;-70
2023/05/15 02:19:05;;;;;;;119.97;49.23;;;10.50;99.90;;;;;;4972692;28;20417;-70
2023/05/15 02:21:31;;;;;;;100.80;47.73;;;10.50;99.90;;;;;;4956316;28;20050;-70
2023/05/15 02:23:57;;;;;;;119.83;50.27;;;10.60;99.90;;;;;;4961162;28;20047;-69
2023/05/15 02:27:03;;;;;;;100.27;48.47;;;10.60;99.90;;;;;;4960720;28;20081;-70
2023/05/15 02:29:59;;;;;;;122.07;51.67;;;10.60;99.90;;;;;;4943922;28;20050;-70
2023/05/15 02:32:32;;;;;;;94.37;46.93;;;10.60;99.90;;;;;;4974924;28;20467;-70
2023/05/15 02:35:32;;;;;;;115.43;51.97;;;10.50;99.90;;;;;;4960499;28;20592;-70
2023/05/15 02:38:05;;;;;;;188.00;54.17;;;10.50;99.90;;;;;;4974901;28;20766;-70
2023/05/15 02:40:33;;;;;;;173.57;52.53;;;10.40;99.90;;;;;;4976990;28;20074;-70
2023/05/15 02:42:59;;;;;;;115.03;47.83;;;10.30;99.90;;;;;;4976574;28;20050;-70
2023/05/15 02:45:25;;;;;;;120.13;51.03;;;10.30;99.90;;;;;;4944889;28;20073;-70
2023/05/15 02:47:51;;;;;;;164.63;57.80;;;10.30;99.90;;;;;;4975784;28;20059;-70
2023/05/15 02:50:18;;;;;;;150.57;51.60;;;10.30;99.90;;;;;;4976412;28;20094;-71
2023/05/15 02:52:43;;;;;;;80.53;43.33;;;10.30;99.90;;;;;;4960003;28;20054;-70
2023/05/15 02:55:09;;;;;;;152.83;52.13;;;10.40;99.90;;;;;;4944142;28;20653;-70
2023/05/15 02:57:35;;;;;;;136.33;50.73;;;10.40;99.90;;;;;;4974936;28;20121;-70
2023/05/15 03:00:04;;;;;;;123.10;46.77;;;10.40;99.90;;;;;;4959528;28;20046;-70
2023/05/15 03:02:29;;;;;;;138.47;53.93;;;10.30;99.90;;;;;;4976667;28;20053;-70
2023/05/15 03:04:55;;;;;;;113.50;50.33;;;10.30;99.90;;;;;;4959752;28;20038;-70
2023/05/15 03:07:21;;;;;;;97.20;48.63;;;10.30;99.90;;;;;;4957295;28;20145;-70
2023/05/15 03:09:47;;;;;;;109.00;49.93;;;10.30;99.90;;;;;;4975665;28;20038;-70
2023/05/15 03:12:13;;;;;;;135.77;53.60;;;10.30;99.90;;;;;;4973727;28;20050;-70
2023/05/15 03:14:38;;;;;;;174.53;58.53;;;10.30;99.90;;;;;;4960440;28;20051;-70
2023/05/15 03:17:04;;;;;;;129.30;50.63;;;10.20;99.90;;;;;;4967955;28;20049;-70
2023/05/15 03:19:30;;;;;;;84.13;44.13;;;10.30;99.90;;;;;;4966138;28;20042;-69
2023/05/15 03:21:56;;;;;;;242.40;61.67;;;10.30;99.90;;;;;;4943041;28;20047;-70
2023/05/15 03:24:22;;;;;;;182.07;58.17;;;10.40;99.90;;;;;;4957376;28;20101;-70
2023/05/15 03:26:48;;;;;;;106.97;50.67;;;10.40;99.90;;;;;;4972397;28;20054;-71
2023/05/15 03:29:13;;;;;;;91.90;46.33;;;10.40;99.90;;;;;;4959791;28;20129;-70
2023/05/15 03:31:39;;;;;;;130.30;51.63;;;10.40;99.90;;;;;;4944281;28;20119;-70
2023/05/15 03:34:04;;;;;;;129.00;49.97;;;10.40;99.90;;;;;;4958594;28;20189;-70
2023/05/15 03:36:30;;;;;;;96.13;46.63;;;10.40;99.90;;;;;;4927965;28;20056;-71
2023/05/15 03:38:56;;;;;;;73.57;42.83;;;10.40;99.90;;;;;;4975350;28;20050;-70
2023/05/15 03:41:22;;;;;;;123.53;48.57;;;10.50;99.90;;;;;;4959239;28;20050;-70
2023/05/15 03:43:47;;;;;;;207.63;59.20;;;10.40;99.90;;;;;;4971204;28;20058;-71
2023/05/15 03:46:13;;;;;;;199.30;56.33;;;10.40;99.90;;;;;;4957111;28;20089;-70
2023/05/15 03:48:39;;;;;;;88.10;43.67;;;10.40;99.90;;;;;;4959704;28;20060;-70
2023/05/15 03:51:05;;;;;;;114.03;48.40;;;10.30;99.90;;;;;;4943411;28;20074;-70
2023/05/15 03:53:31;;;;;;;170.00;56.10;;;10.30;99.90;;;;;;4974728;28;20050;-70
2023/05/15 03:55:56;;;;;;;91.67;46.80;;;10.30;99.90;;;;;;4947980;28;20057;-70
2023/05/15 03:58:22;;;;;;;127.10;51.17;;;10.30;99.90;;;;;;4975100;28;20046;-70
2023/05/15 04:00:48;;;;;;;85.87;45.77;;;10.20;99.90;;;;;;4943774;28;20054;-70
2023/05/15 04:03:13;;;;;;;117.60;47.47;;;10.30;99.90;;;;;;4978014;28;20038;-71
2023/05/15 04:05:39;;;;;;;147.30;49.67;;;10.30;99.90;;;;;;4984487;28;20058;-70
2023/05/15 04:08:05;;;;;;;139.77;48.07;;;10.20;99.90;;;;;;4959291;28;20214;-70
2023/05/15 04:10:32;;;;;;;122.40;44.30;;;10.20;99.90;;;;;;4959332;28;20047;-70
2023/05/15 04:12:58;;;;;;;127.63;46.30;;;10.10;99.90;;;;;;4958451;28;20050;-70
2023/05/15 04:15:25;;;;;;;109.23;42.33;;;10.10;99.90;;;;;;4962178;28;20061;-70
2023/05/15 04:17:52;;;;;;;80.60;37.93;;;10.10;99.90;;;;;;4997997;28;20066;-70
2023/05/15 04:20:22;;;;;;;97.33;40.93;;;10.00;99.90;;;;;;4979268;28;20077;-71
2023/05/15 04:22:49;;;;;;;90.07;38.77;;;10.00;99.90;;;;;;4959033;28;20118;-71
2023/05/15 04:25:15;;;;;;;86.07;38.03;;;9.90;99.90;;;;;;4960889;28;20050;-70
2023/05/15 04:27:42;;;;;;;91.43;37.87;;;9.90;99.90;;;;;;4978529;28;20058;-70
2023/05/15 04:30:09;;;;;;;92.77;38.93;;;9.90;99.90;;;;;;4996402;28;20054;-70
2023/05/15 04:32:35;;;;;;;85.83;40.03;;;9.80;99.90;;;;;;4997065;28;20056;-70
2023/05/15 04:35:04;;;;;;;88.57;41.63;;;9.80;99.90;;;;;;4975512;28;20046;-70
2023/05/15 04:37:30;;;;;;;86.27;38.33;;;9.80;99.90;;;;;;4963585;28;20050;-70
2023/05/15 04:39:56;;;;;;;94.93;41.00;;;9.70;99.90;;;;;;4955908;28;20080;-70
2023/05/15 04:42:22;;;;;;;104.73;41.93;;;9.70;99.90;;;;;;4959747;28;20077;-69
2023/05/15 04:44:48;;;;;;;93.33;42.80;;;9.70;99.90;;;;;;4994904;28;20503;-70
2023/05/15 04:47:14;;;;;;;78.53;41.73;;;9.70;99.90;;;;;;4978144;28;20046;-70
2023/05/15 04:49:42;;;;;;;76.07;40.40;;;9.70;99.90;;;;;;4949402;28;20061;-71
2023/05/15 04:52:08;;;;;;;69.83;39.37;;;9.80;99.90;;;;;;4961811;28;20050;-70
2023/05/15 04:54:34;;;;;;;75.70;38.87;;;9.70;99.90;;;;;;4997146;28;20427;-71
2023/05/15 04:57:00;;;;;;;87.10;41.93;;;9.70;99.90;;;;;;4962069;28;20054;-70
2023/05/15 04:59:27;;;;;;;74.00;39.70;;;9.70;99.90;;;;;;4959874;28;20054;-71
2023/05/15 05:01:53;;;;;;;72.40;38.43;;;9.60;99.90;;;;;;4978808;28;20474;-71
2023/05/15 05:04:19;;;;;;;79.80;40.27;;;9.60;99.90;;;;;;4961919;28;20461;-71
2023/05/15 05:06:48;;;;;;;73.40;38.33;;;9.60;99.90;;;;;;4962256;28;20081;-70
2023/05/15 05:09:13;;;;;;;71.50;39.23;;;9.70;99.90;;;;;;4977445;28;20098;-70
2023/05/15 05:11:42;;;;;;;76.23;39.73;;;9.70;99.90;;;;;;4975326;28;20054;-70
2023/05/15 05:14:13;;;;;;;67.83;37.60;;;9.70;99.90;;;;;;4961055;28;20042;-71
2023/05/15 05:16:39;;;;;;;77.83;39.63;;;9.70;99.90;;;;;;4976508;28;20494;-71
2023/05/15 05:19:06;;;;;;;79.77;39.57;;;9.70;99.90;;;;;;4961544;28;20054;-71
2023/05/15 05:21:32;;;;;;;72.13;38.47;;;9.70;99.90;;;;;;4961327;28;20397;-71
2023/05/15 05:23:58;;;;;;;79.80;39.80;;;9.60;99.90;;;;;;4945562;28;20101;-70
2023/05/15 05:26:24;;;;;;;76.00;38.23;;;9.60;99.90;;;;;;4976001;28;20050;-71
2023/05/15 05:28:50;;;;;;;70.63;37.67;;;9.60;99.90;;;;;;4961617;28;20563;-70
2023/05/15 05:31:16;;;;;;;72.17;37.77;;;9.70;99.90;;;;;;4978042;28;20053;-70
2023/05/15 05:33:42;;;;;;;74.50;37.43;;;9.70;99.90;;;;;;4977415;28;20487;-68
2023/05/15 05:36:08;;;;;;;69.03;36.77;;;9.60;99.90;;;;;;4967124;28;20050;-68
2023/05/15 05:38:35;;;;;;;67.47;35.63;;;9.60;99.90;;;;;;4976115;28;20042;-69
2023/05/15 05:41:02;;;;;;;70.03;38.03;;;9.60;99.90;;;;;;4946183;28;20145;-68
2023/05/15 05:43:29;;;;;;;73.77;37.23;;;9.60;99.90;;;;;;4995089;28;20479;-69
2023/05/15 05:45:55;;;;;;;67.23;34.87;;;9.60;99.90;;;;;;4959065;28;20102;-69
2023/05/15 05:48:20;;;;;;;71.60;37.23;;;9.70;99.90;;;;;;4995175;28;20495;-71
2023/05/15 05:50:46;;;;;;;66.23;35.77;;;9.70;99.90;;;;;;4994866;28;20085;-69
2023/05/15 05:53:12;;;;;;;62.97;34.37;;;9.70;99.90;;;;;;4960527;28;20101;-68
2023/05/15 05:55:37;;;;;;;65.20;35.80;;;9.70;99.90;;;;;;4974545;28;20042;-68
2023/05/15 05:58:03;;;;;;;59.70;33.90;;;9.70;99.90;;;;;;4998170;28;20157;-70
2023/05/15 06:00:29;;;;;;;70.17;35.67;;;9.70;99.90;;;;;;4963458;28;20452;-68
2023/05/15 06:02:57;;;;;;;63.60;33.47;;;9.70;99.90;;;;;;4995355;28;20058;-69
2023/05/15 06:05:24;;;;;;;68.63;35.47;;;9.70;99.90;;;;;;4975217;28;20050;-68
2023/05/15 06:07:51;;;;;;;62.87;34.03;;;9.80;99.90;;;;;;4992762;28;20077;-69
2023/05/15 06:10:17;;;;;;;59.33;33.17;;;9.80;99.90;;;;;;4975081;28;20073;-68
2023/05/15 06:12:44;;;;;;;58.90;32.20;;;10.00;99.90;;;;;;4955919;28;20508;-68
2023/05/15 06:15:10;;;;;;;56.23;32.77;;;10.00;99.90;;;;;;4973957;28;20738;-68
2023/05/15 06:17:37;;;;;;;55.57;32.30;;;10.10;99.90;;;;;;4974850;28;20070;-68
2023/05/15 06:20:07;;;;;;;52.00;31.80;;;10.10;99.90;;;;;;4977073;28;20610;-69
2023/05/15 06:22:34;;;;;;;52.07;30.77;;;10.10;99.90;;;;;;4974673;28;20042;-69
2023/05/15 06:25:01;;;;;;;46.83;30.00;;;10.20;99.90;;;;;;4992903;28;20049;-68
2023/05/15 06:27:28;;;;;;;47.90;29.23;;;10.20;99.90;;;;;;4994991;28;20101;-68
2023/05/15 06:29:54;;;;;;;49.80;29.43;;;10.30;99.90;;;;;;4994184;28;20061;-68
2023/05/15 06:32:20;;;;;;;43.10;28.07;;;10.40;99.90;;;;;;4971772;28;20041;-68
2023/05/15 06:34:45;;;;;;;41.23;27.13;;;10.40;99.90;;;;;;4975050;28;20740;-68
2023/05/15 06:37:11;;;;;;;42.67;27.13;;;10.40;99.90;;;;;;4959976;28;20042;-68
2023/05/15 06:39:37;;;;;;;40.90;26.50;;;10.50;99.90;;;;;;4960066;28;20047;-68
2023/05/15 06:42:03;;;;;;;38.93;27.10;;;10.60;99.90;;;;;;4950375;28;20053;-68
2023/05/15 06:44:31;;;;;;;37.97;26.37;;;10.70;99.90;;;;;;4978853;28;20046;-68
2023/05/15 06:46:57;;;;;;;38.43;25.93;;;10.90;99.90;;;;;;4959212;28;20050;-68
2023/05/15 06:49:24;;;;;;;38.63;26.20;;;11.20;99.90;;;;;;4968286;28;20089;-68
2023/05/15 06:51:50;;;;;;;38.47;26.43;;;11.40;99.90;;;;;;4993927;28;20105;-68
2023/05/15 06:54:16;;;;;;;38.03;26.10;;;11.50;99.90;;;;;;4976544;28;20138;-69
2023/05/15 06:56:42;;;;;;;36.57;24.83;;;11.70;99.90;;;;;;4944199;28;20046;-68
2023/05/15 06:59:07;;;;;;;37.10;25.90;;;11.80;99.90;;;;;;4960402;28;20061;-69
2023/05/15 07:01:33;;;;;;;32.03;23.83;;;12.00;99.90;;;;;;4976908;28;20097;-69
2023/05/15 07:03:58;;;;;;;36.07;25.23;;;12.10;99.90;;;;;;4994592;28;20069;-69
2023/05/15 07:06:27;;;;;;;34.40;24.60;;;12.30;99.90;;;;;;4975978;28;20047;-69
2023/05/15 07:08:53;;;;;;;34.97;24.60;;;12.50;99.90;;;;;;4975528;28;20126;-69
2023/05/15 07:11:18;;;;;;;31.77;22.67;;;12.60;99.90;;;;;;4993957;28;20097;-69
2023/05/15 07:13:44;;;;;;;29.97;22.90;;;12.80;99.90;;;;;;4993420;28;20050;-70
2023/05/15 07:16:10;;;;;;;29.80;21.83;;;13.00;99.90;;;;;;4993885;28;20039;-70
2023/05/15 07:18:35;;;;;;;26.58;21.05;;;13.10;99.90;;;;;;4974437;28;20052;-69
2023/05/15 07:21:01;;;;;;;28.48;20.95;;;13.10;99.90;;;;;;4959980;28;20042;-70
2023/05/15 07:23:27;;;;;;;28.63;21.02;;;13.20;99.90;;;;;;5003684;28;20046;-69
2023/05/15 07:25:56;;;;;;;25.30;19.80;;;13.20;99.90;;;;;;4991048;28;20065;-69
2023/05/15 07:28:21;;;;;;;26.30;19.40;;;13.30;99.90;;;;;;4993425;28;20070;-70
2023/05/15 07:30:47;;;;;;;25.88;19.88;;;13.40;99.90;;;;;;4959461;28;20034;-69
2023/05/15 07:33:13;;;;;;;26.63;20.08;;;13.50;99.90;;;;;;4992718;28;20481;-70
2023/05/15 07:35:38;;;;;;;25.83;18.10;;;13.60;99.90;;;;;;4976683;28;20077;-69
2023/05/15 07:38:04;;;;;;;23.27;18.63;;;13.60;99.90;;;;;;4996740;28;20125;-70
2023/05/15 07:40:31;;;;;;;22.80;18.27;;;13.60;99.90;;;;;;4981230;28;20097;-70
2023/05/15 07:42:57;;;;;;;23.83;19.33;;;13.70;99.90;;;;;;4971146;28;20049;-69
2023/05/15 07:45:23;;;;;;;23.23;17.90;;;13.80;99.90;;;;;;4977279;28;20053;-69
2023/05/15 07:47:49;;;;;;;26.48;17.25;;;14.10;99.90;;;;;;4993077;28;20050;-70
2023/05/15 07:50:16;;;;;;;24.08;18.27;;;14.30;99.90;;;;;;4979204;28;20038;-70
2023/05/15 07:52:42;;;;;;;21.05;17.75;;;14.30;99.90;;;;;;4998719;28;20072;-69
2023/05/15 07:55:12;;;;;;;22.92;18.48;;;14.50;99.90;;;;;;4979196;28;20053;-70
2023/05/15 07:57:41;;;;;;;22.48;17.38;;;14.70;99.90;;;;;;4959552;28;20536;-70
2023/05/15 08:00:12;;;;;;;23.73;18.17;;;14.80;99.90;;;;;;4979027;28;20042;-69
2023/05/15 08:02:39;;;;;;;23.48;17.77;;;15.00;99.90;;;;;;4980396;28;20054;-69
2023/05/15 08:05:05;;;;;;;23.70;19.08;;;15.20;99.90;;;;;;4962719;28;20073;-70
2023/05/15 08:07:32;;;;;;;22.17;17.52;;;15.30;99.90;;;;;;4996597;28;20035;-70
2023/05/15 08:09:58;;;;;;;21.63;17.27;;;15.50;99.90;;;;;;4963303;28;20046;-70
2023/05/15 08:12:25;;;;;;;24.45;17.52;;;15.40;99.90;;;;;;4962679;28;20106;-70
2023/05/15 08:14:53;;;;;;;22.40;17.67;;;15.50;99.90;;;;;;4977977;28;20054;-69
2023/05/15 08:17:19;;;;;;;21.92;16.92;;;15.50;99.90;;;;;;4978612;28;20117;-69
2023/05/15 08:19:46;;;;;;;20.63;17.02;;;15.50;99.90;;;;;;4963036;28;20046;-69
2023/05/15 08:22:12;;;;;;;22.45;17.15;;;15.60;99.90;;;;;;4998022;28;20041;-69
2023/05/15 08:24:38;;;;;;;22.77;18.35;;;15.90;99.90;;;;;;4977637;28;20102;-69
2023/05/15 08:27:05;;;;;;;19.75;17.15;;;16.00;99.90;;;;;;5004813;28;20046;-69
2023/05/15 08:29:31;;;;;;;21.23;17.33;;;16.00;99.90;;;;;;4970448;28;20081;-69
2023/05/15 08:31:57;;;;;;;22.83;18.67;;;15.90;99.90;;;;;;4977262;28;20100;-69
2023/05/15 08:34:23;;;;;;;24.92;18.02;;;15.90;99.90;;;;;;4976913;28;20583;-69
2023/05/15 08:36:49;;;;;;;24.63;19.38;;;15.90;99.90;;;;;;4962938;28;20050;-69
2023/05/15 08:39:15;;;;;;;23.02;17.90;;;16.00;99.90;;;;;;4992716;28;20042;-69
2023/05/15 08:42:13;;;;;;;19.75;15.20;;;16.20;99.90;;;;;;4981587;28;20042;-70
2023/05/15 08:44:40;;;;;;;19.80;15.50;;;16.10;99.90;;;;;;4966546;28;20065;-69
2023/05/15 08:47:06;;;;;;;20.33;16.33;;;16.00;99.90;;;;;;4977657;28;20046;-69
2023/05/15 08:49:54;;;;;;;18.52;15.40;;;16.10;99.90;;;;;;4962854;28;20050;-69
2023/05/15 08:52:20;;;;;;;18.30;14.43;;;16.30;99.90;;;;;;4960854;28;20057;-69
2023/05/15 08:54:47;;;;;;;18.45;14.77;;;16.40;99.90;;;;;;4989647;28;20086;-69
2023/05/15 08:57:14;;;;;;;18.20;14.65;;;16.50;99.90;;;;;;4960674;28;20073;-68
2023/05/15 08:59:40;;;;;;;17.95;15.27;;;16.40;99.90;;;;;;4976407;28;20149;-73
2023/05/15 09:02:06;;;;;;;17.88;15.40;;;16.40;99.90;;;;;;4979808;28;20034;-69
2023/05/15 09:04:32;;;;;;;20.10;16.02;;;16.60;99.90;;;;;;4961717;28;20042;-69
2023/05/15 09:07:00;;;;;;;17.92;15.45;;;16.70;99.90;;;;;;4993865;28;20481;-69
2023/05/15 09:09:28;;;;;;;15.93;13.70;;;16.70;99.90;;;;;;4960350;28;20057;-70
2023/05/15 09:11:55;;;;;;;16.85;13.95;;;16.80;99.90;;;;;;4991552;28;20061;-70
2023/05/15 09:14:20;;;;;;;15.80;14.13;;;16.90;99.90;;;;;;4978245;28;20105;-69
2023/05/15 09:16:49;;;;;;;18.30;14.70;;;16.90;99.90;;;;;;4993711;28;20074;-70
2023/05/15 09:19:17;;;;;;;14.88;13.00;;;16.90;99.90;;;;;;4976591;28;20100;-69
2023/05/15 09:21:43;;;;;;;16.83;13.70;;;17.00;99.90;;;;;;4980015;28;20446;-69
2023/05/15 09:24:19;;;;;;;16.00;13.88;;;16.90;99.90;;;;;;4980267;28;20082;-70
2023/05/15 09:26:46;;;;;;;17.30;12.57;;;17.00;99.90;;;;;;4978973;28;20512;-69
2023/05/15 09:29:16;;;;;;;17.50;13.43;;;17.10;99.90;;;;;;4994790;28;20093;-69
2023/05/15 09:31:41;;;;;;;14.55;11.98;;;17.30;99.90;;;;;;4994710;28;20042;-69
2023/05/15 09:34:09;;;;;;;16.60;12.95;;;17.50;99.90;;;;;;4994932;28;20136;-69
2023/05/15 09:36:35;;;;;;;16.10;11.85;;;17.60;99.90;;;;;;4980914;28;20061;-69
2023/05/15 09:39:02;;;;;;;14.32;11.55;;;17.70;99.90;;;;;;4992354;28;20439;-69
2023/05/15 09:41:27;;;;;;;16.75;13.10;;;17.90;99.90;;;;;;4976674;28;20037;-69
2023/05/15 09:43:55;;;;;;;11.90;10.13;;;18.00;99.90;;;;;;4995080;28;20042;-69
2023/05/15 09:46:22;;;;;;;11.05;8.93;;;18.20;99.90;;;;;;4993949;28;20051;-69
2023/05/15 09:48:48;;;;;;;12.07;9.60;;;18.20;99.90;;;;;;4977213;28;20046;-69
2023/05/15 09:51:18;;;;;;;11.15;9.27;;;18.40;99.90;;;;;;5008215;28;20128;-70
2023/05/15 09:53:49;;;;;;;12.38;9.43;;;18.60;99.90;;;;;;4977499;28;20058;-70
2023/05/15 09:56:16;;;;;;;10.23;9.23;;;18.80;99.90;;;;;;4977248;28;20050;-69
2023/05/15 09:58:55;;;;;;;10.10;9.10;;;18.90;99.90;;;;;;4976790;28;20078;-70
2023/05/15 10:01:25;;;;;;;13.68;8.93;;;19.00;99.90;;;;;;4973548;28;20049;-70
2023/05/15 10:04:02;;;;;;;9.80;8.43;;;19.20;99.90;;;;;;4960589;28;20061;-70
2023/05/15 10:06:39;;;;;;;10.82;8.75;;;19.30;99.90;;;;;;4977674;28;20042;-70
2023/05/15 10:09:06;;;;;;;10.65;7.72;;;19.30;99.90;;;;;;4975860;28;20054;-70
2023/05/15 10:11:40;;;;;;;9.73;7.90;;;19.10;99.90;;;;;;4976880;28;20057;-70
2023/05/15 10:14:08;;;;;;;12.10;9.13;;;18.90;99.90;;;;;;4960761;28;20042;-70
2023/05/15 10:16:36;;;;;;;11.65;10.38;;;18.70;99.90;;;;;;4960986;28;20054;-70
2023/05/15 10:19:09;;;;;;;10.63;9.60;;;18.40;99.90;;;;;;4976831;28;20042;-69
2023/05/15 10:21:37;;;;;;;12.70;8.95;;;18.30;99.90;;;;;;4972655;28;20047;-70
2023/05/15 10:24:05;;;;;;;11.82;8.90;;;18.30;99.90;;;;;;4994400;28;20084;-70
2023/05/15 10:26:42;;;;;;;11.55;10.43;;;18.30;99.90;;;;;;4992968;28;20066;-70
2023/05/15 10:29:12;;;;;;;10.13;9.13;;;18.60;99.90;;;;;;4975676;28;20054;-70
2023/05/15 10:31:39;;;;;;;8.93;8.02;;;18.70;99.90;;;;;;4978485;28;20050;-69
2023/05/15 10:34:06;;;;;;;13.40;10.90;;;18.60;99.90;;;;;;4975575;28;20051;-69
2023/05/15 10:36:33;;;;;;;11.88;10.23;;;18.60;99.90;;;;;;4975881;28;20121;-69
2023/05/15 10:39:00;;;;;;;10.18;9.18;;;18.50;99.90;;;;;;4976523;28;20054;-69
2023/05/15 10:41:28;;;;;;;11.63;10.07;;;18.50;99.90;;;;;;4975557;28;20046;-69
2023/05/15 10:43:58;;;;;;;11.82;10.18;;;18.50;99.90;;;;;;4997112;28;20413;-69
2023/05/15 10:46:25;;;;;;;10.70;9.60;;;18.50;99.90;;;;;;4996077;28;20461;-70
2023/05/15 10:48:51;;;;;;;11.02;9.93;;;18.70;99.90;;;;;;4960652;28;20046;-70
2023/05/15 10:51:23;;;;;;;11.10;9.98;;;18.70;99.90;;;;;;4999690;28;20046;-70
2023/05/15 10:53:50;;;;;;;10.75;9.68;;;18.60;99.90;;;;;;4983818;28;20058;-70
2023/05/15 10:56:15;;;;;;;10.68;9.40;;;18.70;99.90;;;;;;4994332;28;20633;-69
2023/05/15 10:58:53;;;;;;;9.57;8.65;;;18.90;99.90;;;;;;4969908;28;20113;-70
2023/05/15 11:01:28;;;;;;;9.85;8.77;;;19.10;99.90;;;;;;4976373;28;20050;-70
2023/05/15 11:04:15;;;;;;;9.57;8.63;;;19.20;99.90;;;;;;4970694;28;20087;-69
2023/05/15 11:06:42;;;;;;;11.98;8.30;;;19.30;99.90;;;;;;4990915;28;20158;-70
2023/05/15 11:09:20;;;;;;;11.48;7.93;;;19.50;99.90;;;;;;5002083;28;20042;-70
2023/05/15 11:11:54;;;;;;;12.35;10.85;;;19.80;99.90;;;;;;5008586;28;20053;-70
2023/05/15 11:14:22;;;;;;;12.13;10.30;;;19.80;99.90;;;;;;4967793;28;20054;-69
2023/05/15 11:16:53;;;;;;;12.23;10.95;;;19.60;99.90;;;;;;4975306;28;20141;-70
2023/05/15 11:19:30;;;;;;;13.43;12.10;;;19.40;99.90;;;;;;4994722;28;20133;-70
2023/05/15 11:22:02;;;;;;;14.95;12.68;;;19.40;99.90;;;;;;5003463;28;20055;-69
2023/05/15 11:24:31;;;;;;;13.57;11.82;;;19.30;99.90;;;;;;4996255;28;20042;-70
2023/05/15 11:27:03;;;;;;;15.50;13.60;;;19.40;99.90;;;;;;4997608;28;20066;-70
2023/05/15 11:29:30;;;;;;;13.27;11.98;;;19.00;99.90;;;;;;4979778;28;20461;-70
2023/05/15 11:31:56;;;;;;;14.82;12.80;;;18.70;99.90;;;;;;5008691;28;20049;-70
2023/05/15 11:34:39;;;;;;;16.48;12.55;;;18.40;99.90;;;;;;4981268;28;20042;-70
2023/05/15 11:37:16;;;;;;;14.52;13.02;;;18.40;99.90;;;;;;4979815;28;20058;-69
2023/05/15 11:39:43;;;;;;;13.73;12.27;;;18.70;99.90;;;;;;4963752;28;20175;-69
2023/05/15 11:42:12;;;;;;;13.18;11.77;;;19.00;99.90;;;;;;4996416;28;20038;-69
2023/05/15 11:44:39;;;;;;;15.38;13.77;;;19.20;99.90;;;;;;5003606;28;20050;-70
2023/05/15 11:47:09;;;;;;;13.38;11.98;;;19.00;99.90;;;;;;4977220;28;20042;-69
2023/05/15 11:49:37;;;;;;;15.85;11.50;;;18.80;99.90;;;;;;4959446;28;20045;-69
2023/05/15 11:52:03;;;;;;;15.18;11.75;;;18.50;99.90;;;;;;4981647;28;20049;-69
2023/05/15 11:54:29;;;;;;;11.95;10.50;;;18.70;99.90;;;;;;4981443;28;20138;-69
2023/05/15 11:56:56;;;;;;;12.55;11.25;;;18.90;99.90;;;;;;4993435;28;20046;-69
2023/05/15 11:59:26;;;;;;;12.35;11.02;;;19.10;99.90;;;;;;4963056;28;20049;-70
2023/05/15 12:01:51;;;;;;;13.13;11.82;;;19.30;99.90;;;;;;4980185;28;20050;-69
2023/05/15 12:04:18;;;;;;;15.02;12.10;;;19.20;99.90;;;;;;4978682;28;20069;-69
2023/05/15 12:06:46;;;;;;;13.68;12.10;;;19.20;99.90;;;;;;4979192;28;20105;-69
2023/05/15 12:09:17;;;;;;;13.05;10.98;;;19.20;99.90;;;;;;4947800;28;20073;-70
2023/05/15 12:11:54;;;;;;;14.02;11.73;;;19.40;99.90;;;;;;4950824;28;20058;-70
2023/05/15 12:14:27;;;;;;;13.05;11.75;;;19.40;99.90;;;;;;4965563;28;20050;-69
2023/05/15 12:16:56;;;;;;;13.82;12.30;;;19.00;99.90;;;;;;4963089;28;20046;-69
2023/05/15 12:19:28;;;;;;;14.60;13.13;;;18.80;99.90;;;;;;4964274;28;20234;-70
2023/05/15 12:21:54;;;;;;;13.20;11.45;;;18.50;99.90;;;;;;4978473;28;20047;-70
2023/05/15 12:24:20;;;;;;;14.50;13.00;;;18.20;99.90;;;;;;4977376;28;20045;-70
2023/05/15 12:26:46;;;;;;;15.88;12.85;;;18.10;99.90;;;;;;4995860;28;20110;-69
2023/05/15 12:29:13;;;;;;;15.50;13.50;;;18.20;99.90;;;;;;5009552;28;20039;-70
2023/05/15 12:31:39;;;;;;;14.05;12.65;;;18.20;99.90;;;;;;4976691;28;20054;-69